createdAt,value
2023-08-22T00:01:37.606Z,100223.25
2023-08-22T00:04:06.366Z,100221.52
2023-08-22T00:06:35.279Z,100222.08
2023-08-22T00:09:05.219Z,100213.52
2023-08-22T00:11:34.348Z,100204.41
2023-08-22T00:14:03.213Z,100202.17
2023-08-22T00:16:32.863Z,100198.39
2023-08-22T00:19:01.974Z,100193.56
2023-08-22T00:21:31.326Z,100197.51
2023-08-22T00:24:00.328Z,100196.79
2023-08-22T00:26:29.077Z,100194.59
2023-08-22T00:28:59.145Z,100198.27
2023-08-22T00:31:28.127Z,100198.65
2023-08-22T00:34:01.343Z,100200.34
2023-08-22T00:36:30.239Z,100198.40
2023-08-22T00:38:59.315Z,100202.48
2023-08-22T00:41:28.311Z,100198.34
2023-08-22T00:43:57.254Z,100197.06
2023-08-22T00:46:29.539Z,100199.11
2023-08-22T00:48:59.185Z,100203.66
2023-08-22T00:51:28.254Z,100201.41
2023-08-22T00:53:57.552Z,100197.89
2023-08-22T00:56:26.453Z,100194.66
2023-08-22T00:58:55.249Z,100190.78
2023-08-22T01:01:24.296Z,100186.66
2023-08-22T01:03:53.376Z,100188.63
2023-08-22T01:06:31.950Z,100183.71
2023-08-22T01:09:05.850Z,100183.58
2023-08-22T01:11:40.698Z,100185.34
2023-08-22T01:14:14.452Z,100189.09
2023-08-22T01:16:43.734Z,100189.27
2023-08-22T01:19:13.858Z,100189.60
2023-08-22T01:21:49.588Z,100185.30
2023-08-22T01:24:18.521Z,100183.81
2023-08-22T01:26:48.894Z,100184.27
2023-08-22T01:29:27.440Z,100182.05
2023-08-22T01:32:05.658Z,100186.77
2023-08-22T01:34:39.388Z,100183.88
2023-08-22T01:37:10.375Z,100181.79
2023-08-22T01:39:39.877Z,100182.01
2023-08-22T01:42:09.366Z,100184.42
2023-08-22T01:44:39.176Z,100182.46
2023-08-22T01:47:09.562Z,100177.27
2023-08-22T01:49:38.363Z,100179.31
2023-08-22T01:52:07.236Z,100180.93
2023-08-22T01:54:38.635Z,100179.59
2023-08-22T01:57:07.514Z,100180.71
2023-08-22T01:59:36.448Z,100179.71
2023-08-22T02:02:05.396Z,100177.41
2023-08-22T02:04:34.254Z,100173.27
2023-08-22T02:07:04.638Z,100167.77
2023-08-22T02:09:33.508Z,100167.59
2023-08-22T02:12:03.392Z,100164.77
2023-08-22T02:14:32.335Z,100166.03
2023-08-22T02:17:02.044Z,100160.42
2023-08-22T02:19:30.823Z,100158.02
2023-08-22T02:21:59.705Z,100159.23
2023-08-22T02:24:28.575Z,100157.91
2023-08-22T02:26:57.865Z,100160.08
2023-08-22T02:29:26.708Z,100162.66
2023-08-22T02:31:55.954Z,100168.52
2023-08-22T02:34:25.955Z,100170.14
2023-08-22T02:36:54.749Z,100171.30
2023-08-22T02:39:23.633Z,100176.30
2023-08-22T02:41:52.732Z,100169.77
2023-08-22T02:44:21.881Z,100175.35
2023-08-22T02:46:50.960Z,100176.66
2023-08-22T02:49:21.543Z,100178.30
2023-08-22T02:51:50.243Z,100177.02
2023-08-22T02:54:19.182Z,100178.27
2023-08-22T02:56:48.025Z,100175.02
2023-08-22T02:59:19.662Z,100171.40
2023-08-22T03:01:49.386Z,100172.73
2023-08-22T03:04:18.323Z,100166.02
2023-08-22T03:06:47.439Z,100165.67
2023-08-22T03:09:17.659Z,100166.52
2023-08-22T03:11:46.391Z,100160.98
2023-08-22T03:14:15.288Z,100158.77
2023-08-22T03:16:44.129Z,100154.58
2023-08-22T03:19:12.991Z,100152.52
2023-08-22T03:21:42.931Z,100149.95
2023-08-22T03:24:11.585Z,100147.52
2023-08-22T03:26:40.644Z,100147.69
2023-08-22T03:29:10.189Z,100146.47
2023-08-22T03:31:39.332Z,100145.17
2023-08-22T03:34:08.075Z,100141.98
2023-08-22T03:36:37.068Z,100138.74
2023-08-22T03:39:08.257Z,100140.69
2023-08-22T03:41:37.084Z,100147.71
2023-08-22T03:44:06.246Z,100149.38
2023-08-22T03:46:39.268Z,100150.45
2023-08-22T03:49:18.526Z,100149.88
2023-08-22T03:51:47.439Z,100150.35
2023-08-22T03:54:16.223Z,100145.13
2023-08-22T03:56:45.127Z,100142.08
2023-08-22T03:59:14.372Z,100141.31
2023-08-22T04:01:43.100Z,100142.05
2023-08-22T04:04:14.742Z,100135.98
2023-08-22T04:06:42.942Z,100135.38
2023-08-22T04:09:11.799Z,100131.34
2023-08-22T04:11:44.637Z,100129.02
2023-08-22T04:14:13.384Z,100125.80
2023-08-22T04:16:42.163Z,100129.95
2023-08-22T04:19:11.135Z,100128.00
2023-08-22T04:21:41.086Z,100125.16
2023-08-22T04:24:10.512Z,100121.98
2023-08-22T04:26:39.983Z,100127.02
2023-08-22T04:29:09.021Z,100123.23
2023-08-22T04:31:37.813Z,100121.77
2023-08-22T04:34:07.608Z,100117.69
2023-08-22T04:36:41.919Z,100117.86
2023-08-22T04:39:11.084Z,100120.09
2023-08-22T04:41:40.242Z,100119.56
2023-08-22T04:44:27.843Z,100121.83
2023-08-22T04:46:56.619Z,100116.63
2023-08-22T04:49:26.096Z,100117.13
2023-08-22T04:51:55.442Z,100114.42
2023-08-22T04:54:24.408Z,100115.78
2023-08-22T04:56:53.569Z,100107.95
2023-08-22T04:59:23.786Z,100108.84
2023-08-22T05:01:52.658Z,100110.30
2023-08-22T05:04:22.351Z,100110.10
2023-08-22T05:06:52.194Z,100106.63
2023-08-22T05:09:21.398Z,100104.64
2023-08-22T05:11:51.096Z,100107.23
2023-08-22T05:14:21.033Z,100114.18
2023-08-22T05:16:51.807Z,100113.77
2023-08-22T05:19:20.591Z,100111.95
2023-08-22T05:21:49.774Z,100111.44
2023-08-22T05:24:19.221Z,100108.48
2023-08-22T05:26:48.092Z,100110.73
2023-08-22T05:29:19.839Z,100109.86
2023-08-22T05:31:48.816Z,100114.61
2023-08-22T05:34:17.583Z,100116.39
2023-08-22T05:36:47.361Z,100114.98
2023-08-22T05:39:16.111Z,100112.65
2023-08-22T05:41:45.044Z,100107.70
2023-08-22T05:44:14.827Z,100108.98
2023-08-22T05:46:44.221Z,100106.92
2023-08-22T05:49:12.972Z,100111.70
2023-08-22T05:51:41.693Z,100105.91
2023-08-22T05:54:10.610Z,100111.69
2023-08-22T05:56:39.604Z,100111.65
2023-08-22T05:59:08.626Z,100119.05
2023-08-22T06:01:37.451Z,100120.30
2023-08-22T06:04:08.372Z,100125.55
2023-08-22T06:06:37.209Z,100133.95
2023-08-22T06:09:06.224Z,100135.95
2023-08-22T06:11:35.088Z,100138.13
2023-08-22T06:14:04.510Z,100141.38
2023-08-22T06:16:33.626Z,100142.79
2023-08-22T06:19:02.938Z,100142.17
2023-08-22T06:21:31.699Z,100132.48
2023-08-22T06:24:00.588Z,100132.20
2023-08-22T06:26:29.480Z,100127.94
2023-08-22T06:28:58.641Z,100130.20
2023-08-22T06:31:30.211Z,100128.23
2023-08-22T06:33:59.267Z,100127.38
2023-08-22T06:36:28.986Z,100129.38
2023-08-22T06:38:58.382Z,100127.70
2023-08-22T06:41:27.733Z,100127.48
2023-08-22T06:43:56.557Z,100131.17
2023-08-22T06:46:27.679Z,100138.54
2023-08-22T06:48:55.423Z,100134.26
2023-08-22T06:51:24.535Z,100133.28
2023-08-22T06:53:53.398Z,100128.00
2023-08-22T06:56:22.058Z,100124.86
2023-08-22T06:58:50.917Z,100124.02
2023-08-22T07:01:19.815Z,100122.41
2023-08-22T07:03:53.691Z,100121.73
2023-08-22T07:06:31.249Z,100125.66
2023-08-22T07:09:00.208Z,100120.42
2023-08-22T07:11:28.923Z,100118.38
2023-08-22T07:13:57.739Z,100122.27
2023-08-22T07:16:26.622Z,100118.70
2023-08-22T07:18:55.454Z,100119.79
2023-08-22T07:21:24.491Z,100113.84
2023-08-22T07:23:53.389Z,100113.97
2023-08-22T07:26:22.281Z,100114.96
2023-08-22T07:28:51.582Z,100112.30
2023-08-22T07:31:20.519Z,100112.37
2023-08-22T07:33:49.251Z,100116.23
2023-08-22T07:36:22.013Z,100120.81
2023-08-22T07:38:50.895Z,100118.11
2023-08-22T07:41:19.687Z,100118.59
2023-08-22T07:43:48.422Z,100117.48
2023-08-22T07:46:17.455Z,100117.80
2023-08-22T07:48:46.311Z,100119.89
2023-08-22T07:51:15.033Z,100118.88
2023-08-22T07:53:43.753Z,100114.42
2023-08-22T07:56:12.668Z,100111.61
2023-08-22T07:58:41.626Z,100112.69
2023-08-22T08:01:12.969Z,100117.75
2023-08-22T08:03:42.350Z,100105.73
2023-08-22T08:06:11.673Z,100103.46
2023-08-22T08:08:40.745Z,100103.79
2023-08-22T08:11:09.450Z,100107.58
2023-08-22T08:13:38.423Z,100105.88
2023-08-22T08:16:08.018Z,100101.23
2023-08-22T08:18:37.201Z,100097.56
2023-08-22T08:21:06.117Z,100093.40
2023-08-22T08:23:34.849Z,100092.14
2023-08-22T08:26:57.232Z,100093.71
2023-08-22T08:39:59.900Z,100086.67
2023-08-22T08:43:12.391Z,100084.59
2023-08-22T08:46:26.581Z,100080.48
2023-08-22T08:49:20.705Z,100073.23
2023-08-22T08:52:25.022Z,100067.95
2023-08-22T08:55:39.012Z,100065.52
2023-08-22T08:58:53.874Z,100069.81
2023-08-22T09:02:15.167Z,100066.39
2023-08-22T10:34:15.210Z,99981.52
2023-08-22T10:51:04.012Z,99964.34
2023-08-22T10:57:36.756Z,99954.37
2023-08-22T11:07:02.378Z,99943.38
2023-08-22T11:20:56.798Z,99937.20
2023-08-22T11:24:23.861Z,99932.06
2023-08-22T11:34:41.967Z,99931.96
2023-08-22T11:41:30.966Z,99926.00
2023-08-22T11:44:59.487Z,99918.41
2023-08-22T11:52:08.488Z,99915.32
2023-08-22T11:55:18.326Z,99908.44
2023-08-22T11:58:45.809Z,99912.73
2023-08-22T12:06:03.320Z,99904.86
2023-08-22T12:09:37.677Z,99902.63
2023-08-22T12:13:10.760Z,99903.98
2023-08-22T12:20:05.235Z,99896.36
2023-08-22T12:30:56.245Z,99880.32
2023-08-22T12:38:17.735Z,99874.41
2023-08-22T12:40:50.614Z,99870.45
2023-08-22T12:47:11.026Z,99868.31
2023-08-22T12:50:44.541Z,99865.21
2023-08-22T12:54:29.640Z,99862.42
2023-08-22T13:01:37.901Z,99855.03
2023-08-22T13:09:08.657Z,99844.70
2023-08-22T13:12:48.479Z,99843.42
2023-08-22T13:16:38.038Z,99838.63
2023-08-22T13:20:04.852Z,99836.73
2023-08-22T13:23:29.424Z,99833.21
2023-08-22T13:26:56.078Z,99833.31
2023-08-22T13:30:27.283Z,99832.49
2023-08-22T13:55:34.962Z,99795.61
2023-08-22T13:58:06.485Z,99795.77
2023-08-22T14:00:50.241Z,99793.18
2023-08-22T14:03:58.911Z,99795.23
2023-08-22T14:07:04.016Z,99791.99
2023-08-22T14:10:22.058Z,99785.08
2023-08-22T14:13:48.098Z,99788.27
2023-08-22T14:27:27.583Z,99764.84
2023-08-22T14:29:59.939Z,99763.98
2023-08-22T14:32:33.970Z,99760.46
2023-08-22T14:35:42.778Z,99757.26
2023-08-22T14:38:41.937Z,99758.85
2023-08-22T14:41:14.201Z,99756.16
2023-08-22T14:43:46.126Z,99760.34
2023-08-22T14:46:18.049Z,99756.89
2023-08-22T14:48:50.037Z,99750.82
2023-08-22T14:51:22.016Z,99741.41
2023-08-22T14:53:54.253Z,99741.86
2023-08-22T14:56:36.202Z,99740.63
2023-08-22T15:02:00.578Z,99729.24
2023-08-22T15:04:37.713Z,99726.30
2023-08-22T15:10:04.841Z,99715.88
2023-08-22T15:12:37.732Z,99716.91
2023-08-22T15:18:02.692Z,99727.55
2023-08-22T15:20:36.737Z,99724.58
2023-08-22T15:23:10.306Z,99719.52
2023-08-22T15:25:42.296Z,99705.71
2023-08-22T15:28:14.315Z,99704.41
2023-08-22T15:30:46.373Z,99702.36
2023-08-22T15:34:04.659Z,99705.81
2023-08-22T15:41:10.098Z,99710.34
2023-08-22T15:44:30.768Z,99709.08
2023-08-22T15:47:02.786Z,99701.39
2023-08-22T15:49:34.722Z,99699.54
2023-08-22T16:00:21.937Z,99695.14
2023-08-22T16:03:39.731Z,99687.40
2023-08-22T16:10:52.082Z,99668.45
2023-08-22T16:17:22.241Z,99647.89
2023-08-22T16:20:46.224Z,99640.66
2023-08-22T16:23:24.015Z,99630.27
2023-08-22T16:26:18.651Z,99639.61
2023-08-22T16:28:57.339Z,99641.23
2023-08-22T16:31:31.651Z,99634.52
2023-08-22T16:34:05.063Z,99624.89
2023-08-22T16:36:37.536Z,99626.23
2023-08-22T16:39:11.223Z,99627.60
2023-08-22T16:41:43.249Z,99625.30
2023-08-22T16:44:15.364Z,99626.46
2023-08-22T16:46:57.558Z,99624.84
2023-08-22T16:49:29.618Z,99629.41
2023-08-22T16:52:29.787Z,99639.09
2023-08-22T16:55:42.871Z,99629.12
